3°C Temp
3°C Dewpoint
% Humidity
Temperature
3 KM/H
2 MPH
2 KTS
340°
North North
West

Wind Speed
Foggy
Conditions
Pressure 1014.92 (hPa) - 29.97 (in)
Visibility 0.6 (mi) - 1.0 (km)

Current Conditions
EPKT
Location 6km (3.2mi)
Metar :EPKT 192130Z 34002KT 1200 0150NE R27/0550N BCFG BR NSC 03/03 Q1015
Mon 19th April 22:30 pm

Airport
  Metar Aviation API Data Provided by https://www.checkwx.com/ CSS/SVG/PHP scripts by weather34.com © 2015-2021